createdAt,value
2019-05-22T00:00:58.145Z,19.17
2019-05-22T00:04:12.306Z,19.32
2019-05-22T00:07:15.967Z,19.25
2019-05-22T00:10:26.149Z,18.67
2019-05-22T00:13:30.971Z,18.07
2019-05-22T00:16:35.395Z,17.20
2019-05-22T00:19:40.657Z,17.15
2019-05-22T00:22:48.320Z,17.48
2019-05-22T00:25:53.565Z,17.90
2019-05-22T00:28:57.488Z,16.93
2019-05-22T00:32:01.133Z,17.65
2019-05-22T00:35:06.454Z,17.75
2019-05-22T00:38:12.131Z,19.98
2019-05-22T00:41:18.028Z,26.68
2019-05-22T00:44:22.334Z,28.57
2019-05-22T00:47:25.839Z,28.73
2019-05-22T00:50:33.581Z,30.43
2019-05-22T00:53:43.253Z,30.82
2019-05-22T00:56:52.100Z,34.05
2019-05-22T00:59:57.666Z,28.83
2019-05-22T01:03:02.550Z,36.60
2019-05-22T01:06:08.999Z,32.88
2019-05-22T01:09:31.728Z,33.63
2019-05-22T01:15:40.727Z,31.25
2019-05-22T01:18:45.379Z,32.53
2019-05-22T01:21:50.704Z,36.20
2019-05-22T01:24:54.903Z,34.05
2019-05-22T01:27:58.448Z,36.80
2019-05-22T01:31:09.392Z,37.73
2019-05-22T01:34:13.621Z,40.05
2019-05-22T01:37:19.418Z,40.15
2019-05-22T01:40:39.600Z,37.05
2019-05-22T01:43:43.790Z,38.58
2019-05-22T01:46:48.814Z,41.40
2019-05-22T01:49:54.172Z,41.75
2019-05-22T01:52:58.155Z,44.18
2019-05-22T01:56:04.029Z,42.03
2019-05-22T01:59:09.606Z,41.37
2019-05-22T02:02:14.455Z,39.60
2019-05-22T02:05:18.370Z,38.92
2019-05-22T02:08:23.031Z,36.63
2019-05-22T02:11:28.419Z,38.40
2019-05-22T02:14:32.536Z,37.42
2019-05-22T02:17:37.362Z,35.25
2019-05-22T02:20:42.053Z,34.10
2019-05-22T02:23:47.533Z,33.75
2019-05-22T02:26:51.297Z,33.85
2019-05-22T02:29:55.664Z,36.03
2019-05-22T02:32:59.297Z,36.50
2019-05-22T02:36:03.713Z,35.08
2019-05-22T02:39:11.951Z,38.60
2019-05-22T02:42:30.920Z,36.03
2019-05-22T02:45:34.944Z,39.03
2019-05-22T02:48:42.330Z,37.78
2019-05-22T02:51:44.487Z,37.55
2019-05-22T02:54:48.800Z,38.35
2019-05-22T02:57:52.345Z,38.70
2019-05-22T03:01:02.758Z,39.23
2019-05-22T03:04:08.530Z,38.50
2019-05-22T03:07:12.066Z,39.58
2019-05-22T03:10:19.404Z,42.60
2019-05-22T03:13:26.476Z,43.23
2019-05-22T03:16:50.031Z,41.98
2019-05-22T03:19:54.213Z,45.63
2019-05-22T03:23:09.847Z,47.85
2019-05-22T03:26:15.423Z,46.80
2019-05-22T03:29:22.097Z,47.65
2019-05-22T03:32:26.229Z,47.80
2019-05-22T03:35:33.404Z,51.55
2019-05-22T03:38:38.816Z,47.65
2019-05-22T03:41:42.846Z,45.33
2019-05-22T03:44:47.423Z,45.17
2019-05-22T03:47:53.100Z,45.15
2019-05-22T03:51:08.749Z,43.68
2019-05-22T03:54:12.950Z,43.20
2019-05-22T03:57:16.556Z,44.05
2019-05-22T04:00:21.477Z,41.25
2019-05-22T04:03:26.698Z,40.08
2019-05-22T04:06:30.354Z,41.77
2019-05-22T04:09:34.686Z,43.48
2019-05-22T04:12:40.182Z,41.10
2019-05-22T04:15:45.352Z,40.00
2019-05-22T04:18:50.074Z,38.63
2019-05-22T04:21:54.266Z,37.40
2019-05-22T04:24:58.484Z,37.08
2019-05-22T04:28:02.374Z,35.55
2019-05-22T04:31:07.392Z,36.68
2019-05-22T04:34:11.487Z,37.23
2019-05-22T04:37:16.191Z,33.95
2019-05-22T04:40:26.046Z,33.00
2019-05-22T04:43:30.996Z,33.53
2019-05-22T04:46:34.595Z,31.57
2019-05-22T04:49:38.697Z,30.40
2019-05-22T04:52:42.287Z,30.97
2019-05-22T04:55:46.050Z,31.20
2019-05-22T04:58:49.703Z,29.75
2019-05-22T05:01:53.877Z,29.70
2019-05-22T05:04:59.268Z,29.87
2019-05-22T05:08:04.341Z,27.27
2019-05-22T05:11:08.313Z,28.02
2019-05-22T05:14:12.024Z,23.55
2019-05-22T05:17:15.966Z,26.55
2019-05-22T05:20:22.415Z,26.07
2019-05-22T05:23:25.566Z,24.85
2019-05-22T05:26:31.612Z,26.00
2019-05-22T05:29:35.279Z,25.82
2019-05-22T05:32:40.745Z,26.37
2019-05-22T05:35:45.310Z,26.10
2019-05-22T05:38:48.961Z,25.15
2019-05-22T05:41:52.764Z,28.12
2019-05-22T05:44:56.386Z,26.57
2019-05-22T05:48:03.381Z,26.90
2019-05-22T05:51:11.331Z,26.52
2019-05-22T05:54:15.866Z,26.30
2019-05-22T05:57:41.043Z,27.40
2019-05-22T06:00:47.344Z,25.65
2019-05-22T06:03:55.839Z,26.45
2019-05-22T06:07:19.248Z,27.30
2019-05-22T06:10:29.489Z,24.85
2019-05-22T06:13:34.036Z,26.20
2019-05-22T06:16:54.405Z,26.70
2019-05-22T06:20:04.135Z,25.10
2019-05-22T06:23:27.378Z,24.77
2019-05-22T06:26:39.679Z,24.92
2019-05-22T06:30:05.145Z,24.07
2019-05-22T06:33:13.347Z,23.52
2019-05-22T06:36:17.674Z,23.92
2019-05-22T06:39:21.817Z,21.80
2019-05-22T06:42:25.594Z,18.98
2019-05-22T06:45:29.669Z,20.37
2019-05-22T06:48:33.529Z,20.80
2019-05-22T06:51:37.093Z,21.50
2019-05-22T06:54:40.959Z,20.82
2019-05-22T06:57:44.788Z,22.48
2019-05-22T07:00:48.380Z,19.90
2019-05-22T07:03:52.077Z,21.33
2019-05-22T07:06:56.318Z,20.27
2019-05-22T07:10:00.260Z,19.87
2019-05-22T07:13:05.056Z,20.40
2019-05-22T07:16:08.663Z,18.65
2019-05-22T07:19:12.846Z,19.55
2019-05-22T07:22:16.452Z,18.80
2019-05-22T07:25:21.348Z,19.05
2019-05-22T07:28:26.070Z,16.55
2019-05-22T07:31:29.722Z,16.45
2019-05-22T07:34:33.776Z,17.85
2019-05-22T07:37:45.558Z,17.50
2019-05-22T07:40:51.547Z,17.10
2019-05-22T07:43:55.433Z,17.40
2019-05-22T07:46:59.840Z,15.90
2019-05-22T07:50:05.051Z,16.32
2019-05-22T07:53:08.849Z,15.78
2019-05-22T07:56:14.070Z,15.68
2019-05-22T07:59:17.892Z,12.85
2019-05-22T08:02:24.743Z,15.58
2019-05-22T08:05:30.337Z,14.98
2019-05-22T08:08:37.115Z,14.65
2019-05-22T08:11:41.563Z,12.88
2019-05-22T08:14:46.040Z,14.23
2019-05-22T08:17:49.676Z,13.48
2019-05-22T08:20:53.421Z,13.03
2019-05-22T08:23:57.370Z,13.05
2019-05-22T08:27:01.369Z,13.20
2019-05-22T08:30:07.841Z,12.37
2019-05-22T08:33:15.268Z,13.22
2019-05-22T08:36:18.842Z,12.60
2019-05-22T08:39:23.120Z,13.03
2019-05-22T08:42:27.718Z,13.05
2019-05-22T08:45:32.889Z,15.28
2019-05-22T08:48:39.012Z,13.45
2019-05-22T08:51:42.576Z,12.85
2019-05-22T08:54:48.234Z,12.47
2019-05-22T08:57:52.501Z,12.40
2019-05-22T09:00:56.688Z,12.68
2019-05-22T09:04:00.362Z,12.70
2019-05-22T09:07:05.638Z,13.08
2019-05-22T09:10:09.880Z,12.43
2019-05-22T09:13:13.479Z,12.00
2019-05-22T09:16:18.180Z,11.18
2019-05-22T09:19:22.108Z,12.30
2019-05-22T09:22:39.612Z,11.95
2019-05-22T09:25:32.915Z,12.05
2019-05-22T09:28:38.216Z,11.97
2019-05-22T09:31:41.999Z,12.43
2019-05-22T09:34:45.716Z,12.98
2019-05-22T09:37:49.342Z,13.30
2019-05-22T09:40:53.500Z,12.25
2019-05-22T09:43:57.140Z,13.00
2019-05-22T09:47:00.849Z,12.05
2019-05-22T09:50:07.245Z,12.88
2019-05-22T09:53:11.466Z,12.73
2019-05-22T09:56:15.376Z,12.33
2019-05-22T09:59:19.740Z,12.35
2019-05-22T10:02:23.928Z,12.75
2019-05-22T10:05:27.647Z,12.90
2019-05-22T10:08:31.350Z,12.65
2019-05-22T10:11:35.565Z,12.73
2019-05-22T10:14:39.665Z,12.05
2019-05-22T10:17:49.287Z,11.75
2019-05-22T10:20:53.605Z,12.82
2019-05-22T10:23:57.696Z,12.55
2019-05-22T10:27:02.080Z,13.53
2019-05-22T10:30:09.795Z,13.65
2019-05-22T10:33:13.496Z,14.33
2019-05-22T10:36:17.519Z,12.75
2019-05-22T10:39:24.626Z,12.45
2019-05-22T10:42:27.667Z,13.18
2019-05-22T10:45:31.267Z,12.68
2019-05-22T10:48:34.912Z,12.13
2019-05-22T10:51:39.119Z,13.43
2019-05-22T10:54:42.733Z,11.33
2019-05-22T10:57:46.632Z,15.48
2019-05-22T11:00:50.369Z,14.65
2019-05-22T11:03:54.774Z,14.53
2019-05-22T11:06:58.616Z,14.23
2019-05-22T11:10:02.932Z,12.70
2019-05-22T11:13:06.682Z,12.33
2019-05-22T11:16:11.531Z,13.75
2019-05-22T11:19:15.740Z,14.43
2019-05-22T11:22:19.411Z,13.95
2019-05-22T11:25:23.438Z,15.00
2019-05-22T11:28:27.956Z,13.88
2019-05-22T11:31:31.609Z,12.13
2019-05-22T11:34:35.253Z,12.80
2019-05-22T11:37:39.938Z,12.43
2019-05-22T11:40:43.950Z,11.75
2019-05-22T11:43:47.756Z,11.73
2019-05-22T11:46:51.741Z,11.85
2019-05-22T11:49:55.411Z,10.43
2019-05-22T11:52:59.225Z,10.85
2019-05-22T11:56:03.177Z,10.53
2019-05-22T11:59:07.861Z,11.33
2019-05-22T12:02:13.283Z,11.40
2019-05-22T12:05:17.297Z,10.58
2019-05-22T12:08:21.316Z,11.83
2019-05-22T12:11:25.689Z,11.53
2019-05-22T12:14:29.329Z,9.55
2019-05-22T12:17:38.102Z,11.13
2019-05-22T12:20:39.645Z,11.20
2019-05-22T12:23:43.692Z,11.83
2019-05-22T12:26:47.372Z,11.28
2019-05-22T12:29:51.735Z,11.08
2019-05-22T12:32:56.291Z,12.05
2019-05-22T12:36:01.167Z,12.23
2019-05-22T12:39:08.276Z,13.68
2019-05-22T12:42:13.601Z,12.15
2019-05-22T12:45:19.662Z,12.37
2019-05-22T12:48:23.306Z,13.03
2019-05-22T12:51:27.872Z,13.58
2019-05-22T12:54:45.927Z,14.00
2019-05-22T12:57:37.576Z,13.35
2019-05-22T13:00:41.731Z,14.98
2019-05-22T13:03:46.952Z,13.60
2019-05-22T13:06:50.811Z,14.68
2019-05-22T13:09:54.569Z,15.80
2019-05-22T13:12:58.663Z,16.35
2019-05-22T13:16:02.724Z,17.15
2019-05-22T13:19:06.523Z,16.50
2019-05-22T13:22:14.788Z,19.10
2019-05-22T13:25:20.309Z,18.70
2019-05-22T13:28:25.525Z,19.57
2019-05-22T13:31:29.511Z,20.20
2019-05-22T13:34:33.198Z,20.80
2019-05-22T13:37:36.754Z,20.70
2019-05-22T13:40:40.613Z,20.00
2019-05-22T13:43:44.575Z,19.87
2019-05-22T13:46:48.380Z,20.35
2019-05-22T13:49:52.283Z,19.85
2019-05-22T13:52:56.420Z,20.60
2019-05-22T13:56:01.194Z,21.25
2019-05-22T13:59:05.793Z,21.35
2019-05-22T14:02:09.519Z,20.55
2019-05-22T14:05:13.957Z,19.90
2019-05-22T14:08:18.356Z,21.15
2019-05-22T14:11:22.713Z,21.80
2019-05-22T14:14:26.499Z,21.68
2019-05-22T14:17:31.347Z,22.35
2019-05-22T14:20:35.088Z,24.98
2019-05-22T14:23:39.399Z,23.67
2019-05-22T14:26:43.035Z,22.37
2019-05-22T14:29:46.706Z,20.25
2019-05-22T14:32:50.254Z,18.67
2019-05-22T14:35:55.812Z,17.20
2019-05-22T14:38:59.804Z,17.10
2019-05-22T14:42:03.934Z,17.85
2019-05-22T14:45:13.922Z,16.05
2019-05-22T14:48:17.828Z,15.40
2019-05-22T14:51:23.473Z,14.53
2019-05-22T14:54:27.242Z,13.25
2019-05-22T14:57:31.668Z,15.03
2019-05-22T15:00:36.635Z,16.93
2019-05-22T15:03:40.630Z,15.10
2019-05-22T15:06:44.320Z,15.90
2019-05-22T15:09:47.913Z,15.40
2019-05-22T15:12:51.701Z,16.87
2019-05-22T15:15:55.424Z,15.30
2019-05-22T15:18:59.015Z,14.53
2019-05-22T15:22:02.667Z,13.93
2019-05-22T15:25:10.851Z,13.48
2019-05-22T15:28:14.413Z,11.97
2019-05-22T15:31:18.047Z,12.35
2019-05-22T15:34:24.924Z,11.53
2019-05-22T15:44:45.484Z,11.65
2019-05-22T15:48:02.398Z,11.25
2019-05-22T15:52:44.261Z,10.45
2019-05-22T15:54:23.856Z,10.15
2019-05-22T15:57:25.775Z,10.38
2019-05-22T16:00:35.750Z,11.78
2019-05-22T16:03:42.741Z,12.55
2019-05-22T16:06:56.097Z,13.83
2019-05-22T16:09:59.981Z,13.95
2019-05-22T16:13:06.364Z,13.03
2019-05-22T16:16:11.961Z,13.65
2019-05-22T16:19:16.176Z,13.55
2019-05-22T16:22:22.880Z,12.90
2019-05-22T16:25:27.591Z,12.33
2019-05-22T16:28:36.055Z,12.58
2019-05-22T16:31:49.942Z,12.03
2019-05-22T16:34:55.077Z,10.95
2019-05-22T16:37:58.647Z,10.72
2019-05-22T16:41:02.331Z,11.15
2019-05-22T16:44:06.306Z,11.08
2019-05-22T16:47:10.966Z,11.53
2019-05-22T16:50:18.498Z,10.40
2019-05-22T16:53:24.665Z,10.60
2019-05-22T16:56:29.057Z,11.15
2019-05-22T16:59:36.713Z,11.05
2019-05-22T17:02:40.638Z,10.60
2019-05-22T17:05:44.674Z,9.78
2019-05-22T17:08:49.901Z,11.12
2019-05-22T17:11:54.021Z,10.88
2019-05-22T17:14:57.636Z,11.55
2019-05-22T17:18:01.297Z,11.60
2019-05-22T17:21:06.351Z,10.72
2019-05-22T17:24:13.125Z,10.25
2019-05-22T17:27:17.698Z,12.13
2019-05-22T17:30:22.978Z,9.53
2019-05-22T17:33:27.318Z,9.60
2019-05-22T17:36:31.863Z,8.40
2019-05-22T17:39:38.253Z,8.53
2019-05-22T17:42:42.636Z,8.03
2019-05-22T17:45:46.877Z,8.10
2019-05-22T17:48:52.006Z,8.68
2019-05-22T17:51:55.884Z,8.65
2019-05-22T17:55:01.615Z,8.03
2019-05-22T17:58:06.591Z,7.95
2019-05-22T18:01:11.335Z,8.18
2019-05-22T18:04:15.112Z,8.23
2019-05-22T18:07:22.478Z,8.53
2019-05-22T18:10:26.847Z,8.68
2019-05-22T18:13:31.126Z,8.15
2019-05-22T18:16:35.170Z,9.78
2019-05-22T18:19:38.954Z,9.63
2019-05-22T18:22:42.688Z,8.50
2019-05-22T18:25:48.179Z,9.03
2019-05-22T18:28:51.837Z,8.70
2019-05-22T18:31:55.921Z,8.78
2019-05-22T18:34:59.639Z,9.00
2019-05-22T18:38:04.780Z,8.30
2019-05-22T18:41:08.749Z,9.08
2019-05-22T18:44:14.146Z,9.30
2019-05-22T18:47:21.583Z,9.75
2019-05-22T18:50:24.914Z,9.60
2019-05-22T18:53:29.516Z,8.50
2019-05-22T18:56:34.787Z,9.33
2019-05-22T18:59:38.370Z,9.33
2019-05-22T19:02:42.310Z,7.90
2019-05-22T19:05:48.737Z,9.15
2019-05-22T19:08:58.995Z,10.58
2019-05-22T19:12:07.270Z,9.53
2019-05-22T19:15:13.289Z,9.65
2019-05-22T19:18:16.974Z,8.95
2019-05-22T19:21:20.503Z,8.30
2019-05-22T19:24:24.086Z,9.33
2019-05-22T19:27:27.654Z,8.40
2019-05-22T19:30:31.298Z,9.10
2019-05-22T19:33:36.583Z,9.33
2019-05-22T19:36:40.245Z,10.23
2019-05-22T19:39:43.832Z,9.70
2019-05-22T19:42:47.643Z,9.83
2019-05-22T19:45:51.659Z,9.08
2019-05-22T19:48:55.813Z,8.80
2019-05-22T19:51:59.718Z,8.23
2019-05-22T19:55:06.968Z,8.85
2019-05-22T19:58:10.781Z,8.50
2019-05-22T20:01:14.399Z,8.18
2019-05-22T20:04:18.326Z,8.48
2019-05-22T20:07:22.359Z,8.30
2019-05-22T20:10:29.275Z,7.80
2019-05-22T20:13:33.491Z,8.03
2019-05-22T20:16:39.559Z,7.97
2019-05-22T20:19:43.802Z,8.55
2019-05-22T20:22:53.424Z,7.62
2019-05-22T20:25:57.102Z,7.03
2019-05-22T20:29:01.546Z,7.40
2019-05-22T20:32:06.585Z,6.87
2019-05-22T20:35:11.358Z,7.42
2019-05-22T20:38:17.053Z,6.30
2019-05-22T20:41:21.301Z,6.17
2019-05-22T20:44:25.201Z,6.25
2019-05-22T20:47:31.892Z,6.35
2019-05-22T20:50:40.489Z,6.25
2019-05-22T20:53:54.118Z,6.15
2019-05-22T20:56:55.210Z,6.58
2019-05-22T21:00:02.271Z,5.80
2019-05-22T21:03:06.284Z,6.12
2019-05-22T21:06:14.399Z,6.20
2019-05-22T21:09:19.777Z,5.92
2019-05-22T21:12:25.668Z,5.83
2019-05-22T21:15:31.289Z,5.75
2019-05-22T21:18:38.451Z,6.20
2019-05-22T21:21:42.379Z,5.92
2019-05-22T21:24:46.299Z,6.25
2019-05-22T21:27:50.718Z,5.85
2019-05-22T21:30:56.861Z,6.62
2019-05-22T21:34:00.521Z,6.37
2019-05-22T21:37:05.560Z,5.92
2019-05-22T21:40:09.535Z,6.03
2019-05-22T21:43:15.344Z,6.33
2019-05-22T21:46:25.666Z,5.62
2019-05-22T21:49:29.762Z,6.20
2019-05-22T21:52:36.149Z,5.45
2019-05-22T21:55:46.999Z,6.00
2019-05-22T21:58:51.172Z,5.70
2019-05-22T22:02:02.804Z,5.60
2019-05-22T22:05:11.237Z,6.13
2019-05-22T22:08:15.333Z,5.85
2019-05-22T22:11:21.801Z,5.70
2019-05-22T22:14:26.123Z,6.15
2019-05-22T22:17:31.116Z,6.17
2019-05-22T22:20:35.153Z,6.40
2019-05-22T22:23:40.166Z,6.80
2019-05-22T22:26:51.936Z,6.08
2019-05-22T22:29:57.218Z,6.57
2019-05-22T22:33:10.551Z,6.70
2019-05-22T22:36:17.302Z,6.67
2019-05-22T22:39:21.672Z,6.67
2019-05-22T22:42:29.248Z,6.37
2019-05-22T22:45:42.189Z,6.97
2019-05-22T22:48:48.418Z,6.80
2019-05-22T22:51:53.222Z,6.75
2019-05-22T22:54:58.464Z,7.30
2019-05-22T22:58:16.527Z,6.47
2019-05-22T23:01:18.374Z,6.72
2019-05-22T23:04:24.486Z,6.67
2019-05-22T23:07:30.465Z,7.08
2019-05-22T23:10:34.458Z,6.70
2019-05-22T23:13:38.429Z,7.42
2019-05-22T23:16:43.750Z,6.72
2019-05-22T23:19:47.245Z,7.62
2019-05-22T23:22:49.676Z,7.65
2019-05-22T23:25:53.576Z,7.65
2019-05-22T23:28:59.115Z,8.43
2019-05-22T23:32:05.332Z,7.70
2019-05-22T23:35:11.129Z,9.15
2019-05-22T23:38:15.486Z,10.32
2019-05-22T23:41:20.275Z,13.30
2019-05-22T23:44:25.243Z,12.82
2019-05-22T23:47:30.475Z,12.60
2019-05-22T23:50:36.795Z,13.25
2019-05-22T23:53:42.221Z,12.25
2019-05-22T23:56:45.937Z,11.63
2019-05-22T23:59:52.346Z,10.10
